sensor_id;sensor_type;location;lat;lon;timestamp;P1;durP1;ratioP1;P2;durP2;ratioP2
53644;SDS011;39547;45.554;12.068;2023-12-20T00:02:18;154.45;;;94.97;;
53644;SDS011;39547;45.554;12.068;2023-12-20T00:08:19;160.73;;;100.55;;
53644;SDS011;39547;45.554;12.068;2023-12-20T00:14:21;156.50;;;95.05;;
53644;SDS011;39547;45.554;12.068;2023-12-20T00:20:22;164.88;;;102.80;;
53644;SDS011;39547;45.554;12.068;2023-12-20T00:26:24;155.55;;;94.20;;
53644;SDS011;39547;45.554;12.068;2023-12-20T00:32:25;155.13;;;91.95;;
53644;SDS011;39547;45.554;12.068;2023-12-20T00:38:27;144.65;;;91.18;;
53644;SDS011;39547;45.554;12.068;2023-12-20T00:44:28;144.45;;;88.65;;
53644;SDS011;39547;45.554;12.068;2023-12-20T00:50:30;152.48;;;92.35;;
53644;SDS011;39547;45.554;12.068;2023-12-20T00:56:32;152.50;;;92.22;;
53644;SDS011;39547;45.554;12.068;2023-12-20T01:02:33;150.60;;;91.25;;
53644;SDS011;39547;45.554;12.068;2023-12-20T01:08:35;141.60;;;89.53;;
53644;SDS011;39547;45.554;12.068;2023-12-20T01:14:38;150.13;;;93.32;;
53644;SDS011;39547;45.554;12.068;2023-12-20T01:20:40;146.48;;;88.53;;
53644;SDS011;39547;45.554;12.068;2023-12-20T01:26:43;147.35;;;93.07;;
53644;SDS011;39547;45.554;12.068;2023-12-20T01:32:44;146.23;;;94.65;;
53644;SDS011;39547;45.554;12.068;2023-12-20T01:38:46;149.00;;;90.03;;
53644;SDS011;39547;45.554;12.068;2023-12-20T01:44:47;147.13;;;91.95;;
53644;SDS011;39547;45.554;12.068;2023-12-20T01:50:49;138.38;;;86.82;;
53644;SDS011;39547;45.554;12.068;2023-12-20T01:56:50;147.63;;;92.35;;
53644;SDS011;39547;45.554;12.068;2023-12-20T02:02:53;148.02;;;92.80;;
53644;SDS011;39547;45.554;12.068;2023-12-20T02:08:56;136.40;;;84.68;;
53644;SDS011;39547;45.554;12.068;2023-12-20T02:14:58;146.75;;;88.57;;
53644;SDS011;39547;45.554;12.068;2023-12-20T02:21:00;148.98;;;92.03;;
53644;SDS011;39547;45.554;12.068;2023-12-20T02:27:01;141.07;;;86.82;;
53644;SDS011;39547;45.554;12.068;2023-12-20T02:33:03;149.00;;;90.38;;
53644;SDS011;39547;45.554;12.068;2023-12-20T02:39:11;147.13;;;89.57;;
53644;SDS011;39547;45.554;12.068;2023-12-20T02:45:12;151.05;;;93.75;;
53644;SDS011;39547;45.554;12.068;2023-12-20T02:51:14;155.18;;;96.90;;
53644;SDS011;39547;45.554;12.068;2023-12-20T02:57:15;154.85;;;98.22;;
53644;SDS011;39547;45.554;12.068;2023-12-20T03:03:17;155.07;;;98.80;;
53644;SDS011;39547;45.554;12.068;2023-12-20T03:09:18;155.25;;;96.47;;
53644;SDS011;39547;45.554;12.068;2023-12-20T03:15:21;160.40;;;99.95;;
53644;SDS011;39547;45.554;12.068;2023-12-20T03:21:22;157.95;;;96.35;;
53644;SDS011;39547;45.554;12.068;2023-12-20T03:27:24;148.10;;;89.47;;
53644;SDS011;39547;45.554;12.068;2023-12-20T03:33:25;147.20;;;94.18;;
53644;SDS011;39547;45.554;12.068;2023-12-20T03:39:26;143.73;;;87.60;;
53644;SDS011;39547;45.554;12.068;2023-12-20T03:45:28;138.40;;;89.25;;
53644;SDS011;39547;45.554;12.068;2023-12-20T03:51:29;139.57;;;86.60;;
53644;SDS011;39547;45.554;12.068;2023-12-20T03:57:30;138.02;;;89.53;;
53644;SDS011;39547;45.554;12.068;2023-12-20T04:03:32;140.75;;;90.38;;
53644;SDS011;39547;45.554;12.068;2023-12-20T04:09:34;134.73;;;83.85;;
53644;SDS011;39547;45.554;12.068;2023-12-20T04:15:36;130.55;;;82.00;;
53644;SDS011;39547;45.554;12.068;2023-12-20T04:21:37;129.60;;;81.63;;
53644;SDS011;39547;45.554;12.068;2023-12-20T04:27:39;126.38;;;82.65;;
53644;SDS011;39547;45.554;12.068;2023-12-20T04:33:40;121.97;;;78.78;;
53644;SDS011;39547;45.554;12.068;2023-12-20T04:39:42;123.22;;;78.55;;
53644;SDS011;39547;45.554;12.068;2023-12-20T04:45:43;124.50;;;78.55;;
53644;SDS011;39547;45.554;12.068;2023-12-20T04:51:45;118.00;;;75.25;;
53644;SDS011;39547;45.554;12.068;2023-12-20T04:57:47;115.88;;;72.28;;
53644;SDS011;39547;45.554;12.068;2023-12-20T05:03:49;111.43;;;68.45;;
53644;SDS011;39547;45.554;12.068;2023-12-20T05:09:50;112.55;;;69.78;;
53644;SDS011;39547;45.554;12.068;2023-12-20T05:15:52;102.10;;;66.32;;
53644;SDS011;39547;45.554;12.068;2023-12-20T05:21:54;93.65;;;62.30;;
53644;SDS011;39547;45.554;12.068;2023-12-20T05:27:55;99.07;;;62.25;;
53644;SDS011;39547;45.554;12.068;2023-12-20T05:33:57;93.93;;;58.88;;
53644;SDS011;39547;45.554;12.068;2023-12-20T05:39:59;87.18;;;54.17;;
53644;SDS011;39547;45.554;12.068;2023-12-20T05:46:00;68.03;;;44.28;;
53644;SDS011;39547;45.554;12.068;2023-12-20T05:52:02;61.40;;;39.70;;
53644;SDS011;39547;45.554;12.068;2023-12-20T05:58:04;62.00;;;41.75;;
53644;SDS011;39547;45.554;12.068;2023-12-20T06:04:05;62.90;;;40.47;;
53644;SDS011;39547;45.554;12.068;2023-12-20T06:10:07;64.90;;;41.30;;
53644;SDS011;39547;45.554;12.068;2023-12-20T06:16:09;72.15;;;44.83;;
53644;SDS011;39547;45.554;12.068;2023-12-20T06:22:10;69.07;;;45.45;;
53644;SDS011;39547;45.554;12.068;2023-12-20T06:28:12;70.90;;;44.55;;
53644;SDS011;39547;45.554;12.068;2023-12-20T06:34:15;66.03;;;43.35;;
53644;SDS011;39547;45.554;12.068;2023-12-20T06:40:17;63.47;;;42.00;;
53644;SDS011;39547;45.554;12.068;2023-12-20T06:46:19;68.10;;;43.05;;
53644;SDS011;39547;45.554;12.068;2023-12-20T06:52:20;71.03;;;44.33;;
53644;SDS011;39547;45.554;12.068;2023-12-20T06:58:22;65.00;;;42.78;;
53644;SDS011;39547;45.554;12.068;2023-12-20T07:04:24;58.35;;;40.25;;
53644;SDS011;39547;45.554;12.068;2023-12-20T07:10:25;64.40;;;42.10;;
53644;SDS011;39547;45.554;12.068;2023-12-20T07:16:28;62.42;;;39.95;;
53644;SDS011;39547;45.554;12.068;2023-12-20T07:22:30;60.55;;;40.63;;
53644;SDS011;39547;45.554;12.068;2023-12-20T07:28:32;66.63;;;41.75;;
53644;SDS011;39547;45.554;12.068;2023-12-20T07:34:34;67.85;;;41.95;;
53644;SDS011;39547;45.554;12.068;2023-12-20T07:40:35;58.47;;;40.08;;
53644;SDS011;39547;45.554;12.068;2023-12-20T07:46:37;62.88;;;40.30;;
53644;SDS011;39547;45.554;12.068;2023-12-20T07:52:39;58.47;;;36.67;;
53644;SDS011;39547;45.554;12.068;2023-12-20T07:58:41;54.30;;;37.55;;
53644;SDS011;39547;45.554;12.068;2023-12-20T08:04:43;50.65;;;33.92;;
53644;SDS011;39547;45.554;12.068;2023-12-20T08:10:44;53.25;;;33.63;;
53644;SDS011;39547;45.554;12.068;2023-12-20T08:16:46;51.20;;;33.13;;
53644;SDS011;39547;45.554;12.068;2023-12-20T08:22:48;47.83;;;30.65;;
53644;SDS011;39547;45.554;12.068;2023-12-20T08:28:49;46.15;;;29.35;;
53644;SDS011;39547;45.554;12.068;2023-12-20T08:34:51;56.65;;;32.47;;
53644;SDS011;39547;45.554;12.068;2023-12-20T08:40:53;52.00;;;32.88;;
53644;SDS011;39547;45.554;12.068;2023-12-20T08:46:55;52.50;;;32.53;;
53644;SDS011;39547;45.554;12.068;2023-12-20T08:52:58;49.58;;;33.17;;
53644;SDS011;39547;45.554;12.068;2023-12-20T08:58:59;51.40;;;33.78;;
53644;SDS011;39547;45.554;12.068;2023-12-20T09:05:02;48.85;;;32.20;;
53644;SDS011;39547;45.554;12.068;2023-12-20T09:11:03;47.80;;;30.00;;
53644;SDS011;39547;45.554;12.068;2023-12-20T09:17:05;46.47;;;29.83;;
53644;SDS011;39547;45.554;12.068;2023-12-20T09:23:08;42.50;;;27.67;;
53644;SDS011;39547;45.554;12.068;2023-12-20T09:29:11;42.55;;;26.73;;
53644;SDS011;39547;45.554;12.068;2023-12-20T09:41:17;43.78;;;27.60;;
53644;SDS011;39547;45.554;12.068;2023-12-20T09:47:19;41.80;;;26.17;;
53644;SDS011;39547;45.554;12.068;2023-12-20T09:53:24;43.15;;;27.40;;
53644;SDS011;39547;45.554;12.068;2023-12-20T09:59:30;38.85;;;24.10;;
53644;SDS011;39547;45.554;12.068;2023-12-20T10:05:32;37.20;;;24.25;;
53644;SDS011;39547;45.554;12.068;2023-12-20T10:11:37;38.35;;;24.67;;
53644;SDS011;39547;45.554;12.068;2023-12-20T10:17:39;39.50;;;25.00;;
53644;SDS011;39547;45.554;12.068;2023-12-20T10:23:41;44.60;;;27.35;;
53644;SDS011;39547;45.554;12.068;2023-12-20T10:29:43;40.78;;;25.80;;
53644;SDS011;39547;45.554;12.068;2023-12-20T10:35:45;39.60;;;25.75;;
53644;SDS011;39547;45.554;12.068;2023-12-20T10:41:48;38.85;;;25.25;;
53644;SDS011;39547;45.554;12.068;2023-12-20T10:47:50;37.72;;;24.50;;
53644;SDS011;39547;45.554;12.068;2023-12-20T10:53:53;37.88;;;24.42;;
53644;SDS011;39547;45.554;12.068;2023-12-20T10:59:57;41.38;;;26.92;;
53644;SDS011;39547;45.554;12.068;2023-12-20T11:06:07;38.10;;;25.20;;
53644;SDS011;39547;45.554;12.068;2023-12-20T11:12:15;38.58;;;24.67;;
53644;SDS011;39547;45.554;12.068;2023-12-20T11:18:21;35.20;;;22.52;;
53644;SDS011;39547;45.554;12.068;2023-12-20T11:24:32;37.78;;;23.48;;
53644;SDS011;39547;45.554;12.068;2023-12-20T11:30:45;37.10;;;22.55;;
53644;SDS011;39547;45.554;12.068;2023-12-20T11:36:47;35.38;;;22.17;;
53644;SDS011;39547;45.554;12.068;2023-12-20T11:42:49;36.15;;;22.48;;
53644;SDS011;39547;45.554;12.068;2023-12-20T11:48:55;34.92;;;20.70;;
53644;SDS011;39547;45.554;12.068;2023-12-20T11:54:57;34.03;;;20.10;;
53644;SDS011;39547;45.554;12.068;2023-12-20T12:00:58;33.50;;;20.75;;
53644;SDS011;39547;45.554;12.068;2023-12-20T12:07:00;33.90;;;20.25;;
53644;SDS011;39547;45.554;12.068;2023-12-20T12:13:01;34.58;;;21.45;;
53644;SDS011;39547;45.554;12.068;2023-12-20T12:19:03;35.05;;;21.17;;
53644;SDS011;39547;45.554;12.068;2023-12-20T12:25:12;35.33;;;21.52;;
53644;SDS011;39547;45.554;12.068;2023-12-20T12:31:14;34.65;;;21.88;;
53644;SDS011;39547;45.554;12.068;2023-12-20T12:37:18;34.13;;;20.27;;
53644;SDS011;39547;45.554;12.068;2023-12-20T12:43:20;34.53;;;21.05;;
53644;SDS011;39547;45.554;12.068;2023-12-20T12:49:23;33.65;;;19.48;;
53644;SDS011;39547;45.554;12.068;2023-12-20T12:55:25;35.13;;;20.90;;
53644;SDS011;39547;45.554;12.068;2023-12-20T13:01:26;30.83;;;19.60;;
53644;SDS011;39547;45.554;12.068;2023-12-20T13:07:27;33.75;;;19.42;;
53644;SDS011;39547;45.554;12.068;2023-12-20T13:13:30;31.85;;;20.00;;
53644;SDS011;39547;45.554;12.068;2023-12-20T13:19:32;34.25;;;20.88;;
53644;SDS011;39547;45.554;12.068;2023-12-20T13:25:33;35.40;;;21.20;;
53644;SDS011;39547;45.554;12.068;2023-12-20T13:31:35;34.88;;;20.73;;
53644;SDS011;39547;45.554;12.068;2023-12-20T13:37:38;37.67;;;22.98;;
53644;SDS011;39547;45.554;12.068;2023-12-20T13:43:39;37.10;;;21.13;;
53644;SDS011;39547;45.554;12.068;2023-12-20T13:49:43;37.25;;;22.80;;
53644;SDS011;39547;45.554;12.068;2023-12-20T13:55:46;43.53;;;25.48;;
53644;SDS011;39547;45.554;12.068;2023-12-20T14:01:47;38.15;;;22.73;;
53644;SDS011;39547;45.554;12.068;2023-12-20T14:07:51;36.47;;;22.60;;
53644;SDS011;39547;45.554;12.068;2023-12-20T14:13:53;43.20;;;25.90;;
53644;SDS011;39547;45.554;12.068;2023-12-20T14:19:58;45.30;;;26.92;;
53644;SDS011;39547;45.554;12.068;2023-12-20T14:26:01;47.47;;;27.88;;
53644;SDS011;39547;45.554;12.068;2023-12-20T14:32:04;44.83;;;27.00;;
53644;SDS011;39547;45.554;12.068;2023-12-20T14:38:07;50.28;;;28.38;;
53644;SDS011;39547;45.554;12.068;2023-12-20T14:44:08;48.72;;;28.52;;
53644;SDS011;39547;45.554;12.068;2023-12-20T14:50:11;45.80;;;27.13;;
53644;SDS011;39547;45.554;12.068;2023-12-20T14:56:18;44.25;;;26.88;;
53644;SDS011;39547;45.554;12.068;2023-12-20T15:02:22;55.17;;;32.10;;
53644;SDS011;39547;45.554;12.068;2023-12-20T15:08:24;49.00;;;29.05;;
53644;SDS011;39547;45.554;12.068;2023-12-20T15:14:26;50.13;;;30.77;;
53644;SDS011;39547;45.554;12.068;2023-12-20T15:20:29;53.97;;;32.22;;
53644;SDS011;39547;45.554;12.068;2023-12-20T15:26:34;51.80;;;30.85;;
53644;SDS011;39547;45.554;12.068;2023-12-20T15:32:39;67.75;;;40.35;;
53644;SDS011;39547;45.554;12.068;2023-12-20T15:38:41;64.40;;;36.83;;
53644;SDS011;39547;45.554;12.068;2023-12-20T15:44:43;59.13;;;35.13;;
53644;SDS011;39547;45.554;12.068;2023-12-20T15:50:44;58.03;;;36.38;;
53644;SDS011;39547;45.554;12.068;2023-12-20T15:56:46;75.45;;;43.35;;
53644;SDS011;39547;45.554;12.068;2023-12-20T16:02:48;75.32;;;44.72;;
53644;SDS011;39547;45.554;12.068;2023-12-20T16:08:50;67.28;;;40.25;;
53644;SDS011;39547;45.554;12.068;2023-12-20T16:14:53;75.15;;;43.78;;
53644;SDS011;39547;45.554;12.068;2023-12-20T16:20:54;61.72;;;38.85;;
53644;SDS011;39547;45.554;12.068;2023-12-20T16:26:57;66.57;;;39.60;;
53644;SDS011;39547;45.554;12.068;2023-12-20T16:32:58;81.55;;;47.33;;
53644;SDS011;39547;45.554;12.068;2023-12-20T16:39:00;91.80;;;49.78;;
53644;SDS011;39547;45.554;12.068;2023-12-20T16:45:01;86.28;;;46.85;;
53644;SDS011;39547;45.554;12.068;2023-12-20T16:51:04;78.45;;;47.00;;
53644;SDS011;39547;45.554;12.068;2023-12-20T16:57:06;92.03;;;51.55;;
53644;SDS011;39547;45.554;12.068;2023-12-20T17:03:08;79.30;;;46.95;;
53644;SDS011;39547;45.554;12.068;2023-12-20T17:09:09;106.40;;;62.50;;
53644;SDS011;39547;45.554;12.068;2023-12-20T17:15:12;100.18;;;57.85;;
53644;SDS011;39547;45.554;12.068;2023-12-20T17:21:13;125.75;;;68.00;;
53644;SDS011;39547;45.554;12.068;2023-12-20T17:27:19;89.82;;;52.47;;
53644;SDS011;39547;45.554;12.068;2023-12-20T17:33:21;85.70;;;49.63;;
53644;SDS011;39547;45.554;12.068;2023-12-20T17:39:22;92.00;;;53.40;;
53644;SDS011;39547;45.554;12.068;2023-12-20T17:45:24;83.47;;;48.60;;
53644;SDS011;39547;45.554;12.068;2023-12-20T17:51:26;81.15;;;46.38;;
53644;SDS011;39547;45.554;12.068;2023-12-20T17:57:27;87.72;;;48.72;;
53644;SDS011;39547;45.554;12.068;2023-12-20T18:03:29;73.40;;;42.53;;
53644;SDS011;39547;45.554;12.068;2023-12-20T18:09:30;88.15;;;47.03;;
53644;SDS011;39547;45.554;12.068;2023-12-20T18:15:32;84.82;;;45.75;;
53644;SDS011;39547;45.554;12.068;2023-12-20T18:21:33;88.45;;;48.40;;
53644;SDS011;39547;45.554;12.068;2023-12-20T18:27:36;74.03;;;43.63;;
53644;SDS011;39547;45.554;12.068;2023-12-20T18:33:37;87.40;;;48.00;;
53644;SDS011;39547;45.554;12.068;2023-12-20T18:39:40;88.82;;;48.42;;
53644;SDS011;39547;45.554;12.068;2023-12-20T18:45:42;71.05;;;42.50;;
53644;SDS011;39547;45.554;12.068;2023-12-20T18:51:44;77.95;;;43.00;;
53644;SDS011;39547;45.554;12.068;2023-12-20T18:57:45;68.43;;;40.33;;
53644;SDS011;39547;45.554;12.068;2023-12-20T19:03:48;69.43;;;41.05;;
53644;SDS011;39547;45.554;12.068;2023-12-20T19:09:49;70.22;;;42.00;;
53644;SDS011;39547;45.554;12.068;2023-12-20T19:15:52;72.47;;;40.92;;
53644;SDS011;39547;45.554;12.068;2023-12-20T19:21:53;67.75;;;39.38;;
53644;SDS011;39547;45.554;12.068;2023-12-20T19:27:56;66.85;;;40.47;;
53644;SDS011;39547;45.554;12.068;2023-12-20T19:33:57;74.60;;;40.97;;
53644;SDS011;39547;45.554;12.068;2023-12-20T19:40:00;69.35;;;41.25;;
53644;SDS011;39547;45.554;12.068;2023-12-20T19:46:01;66.30;;;38.63;;
53644;SDS011;39547;45.554;12.068;2023-12-20T19:52:03;63.47;;;39.05;;
53644;SDS011;39547;45.554;12.068;2023-12-20T19:58:05;64.30;;;39.58;;
53644;SDS011;39547;45.554;12.068;2023-12-20T20:04:06;68.38;;;40.22;;
53644;SDS011;39547;45.554;12.068;2023-12-20T20:10:08;65.50;;;38.50;;
53644;SDS011;39547;45.554;12.068;2023-12-20T20:16:10;62.78;;;36.80;;
53644;SDS011;39547;45.554;12.068;2023-12-20T20:22:12;67.85;;;40.15;;
53644;SDS011;39547;45.554;12.068;2023-12-20T20:28:13;60.30;;;37.38;;
53644;SDS011;39547;45.554;12.068;2023-12-20T20:34:17;57.17;;;37.08;;
53644;SDS011;39547;45.554;12.068;2023-12-20T20:40:20;61.08;;;37.97;;
53644;SDS011;39547;45.554;12.068;2023-12-20T20:46:21;60.15;;;37.85;;
53644;SDS011;39547;45.554;12.068;2023-12-20T20:52:27;60.50;;;38.42;;
53644;SDS011;39547;45.554;12.068;2023-12-20T20:58:28;63.25;;;39.95;;
53644;SDS011;39547;45.554;12.068;2023-12-20T21:04:31;63.53;;;39.58;;
53644;SDS011;39547;45.554;12.068;2023-12-20T21:10:32;61.63;;;37.92;;
53644;SDS011;39547;45.554;12.068;2023-12-20T21:16:34;59.42;;;36.88;;
53644;SDS011;39547;45.554;12.068;2023-12-20T21:22:35;55.50;;;36.10;;
53644;SDS011;39547;45.554;12.068;2023-12-20T21:28:37;56.47;;;36.30;;
53644;SDS011;39547;45.554;12.068;2023-12-20T21:34:39;53.78;;;34.22;;
53644;SDS011;39547;45.554;12.068;2023-12-20T21:40:40;57.53;;;36.00;;
53644;SDS011;39547;45.554;12.068;2023-12-20T21:46:42;52.78;;;33.10;;
53644;SDS011;39547;45.554;12.068;2023-12-20T21:52:45;54.20;;;33.72;;
53644;SDS011;39547;45.554;12.068;2023-12-20T21:58:46;53.60;;;33.75;;
53644;SDS011;39547;45.554;12.068;2023-12-20T22:04:47;50.25;;;32.03;;
53644;SDS011;39547;45.554;12.068;2023-12-20T22:10:49;50.72;;;32.75;;
53644;SDS011;39547;45.554;12.068;2023-12-20T22:16:52;54.58;;;34.00;;
53644;SDS011;39547;45.554;12.068;2023-12-20T22:22:53;50.90;;;30.35;;
53644;SDS011;39547;45.554;12.068;2023-12-20T22:28:54;48.95;;;31.13;;
53644;SDS011;39547;45.554;12.068;2023-12-20T22:34:56;52.10;;;33.28;;
53644;SDS011;39547;45.554;12.068;2023-12-20T22:40:57;49.08;;;31.42;;
53644;SDS011;39547;45.554;12.068;2023-12-20T22:46:59;44.25;;;28.27;;
53644;SDS011;39547;45.554;12.068;2023-12-20T22:53:02;44.72;;;28.27;;
53644;SDS011;39547;45.554;12.068;2023-12-20T22:59:03;47.13;;;29.33;;
53644;SDS011;39547;45.554;12.068;2023-12-20T23:05:05;45.85;;;28.48;;
53644;SDS011;39547;45.554;12.068;2023-12-20T23:11:07;46.67;;;29.27;;
53644;SDS011;39547;45.554;12.068;2023-12-20T23:17:08;45.40;;;27.63;;
53644;SDS011;39547;45.554;12.068;2023-12-20T23:23:10;43.45;;;27.02;;
53644;SDS011;39547;45.554;12.068;2023-12-20T23:29:11;44.17;;;26.40;;
53644;SDS011;39547;45.554;12.068;2023-12-20T23:35:13;39.63;;;25.23;;
53644;SDS011;39547;45.554;12.068;2023-12-20T23:41:15;44.70;;;27.85;;
53644;SDS011;39547;45.554;12.068;2023-12-20T23:47:17;43.83;;;25.63;;
53644;SDS011;39547;45.554;12.068;2023-12-20T23:53:18;41.72;;;26.45;;
53644;SDS011;39547;45.554;12.068;2023-12-20T23:59:20;41.03;;;25.17;;
